KSLG/SLG METAR and TAF weather

Enter ICAO airport designator
Station Type Date Time Source
KSLG METAR 2019/10/15 07:56 UTC NOAA

KSLG 150756Z AUTO 18007KT 10SM OVC013 18/16 A2995 RMK AO2 SLP132 T01780156


Station Type Date Time Source
KSLG Decoded METAR 2019/10/15 07:56 UTC NOAA

Siloam Springs, Smith Field Airport, AR, United States (KSLG) 36-12N 094-29W
Oct 15, 2019 - 03:56 AM EDT / 2019.10.15 0756 UTC
Wind: from the S (180 degrees) at 8 MPH (7 KT):0
Visibility: 10 mile(s):0
Sky conditions: overcast
Temperature: 64.0 F (17.8 C)
Dew Point: 60.1 F (15.6 C)
Relative Humidity: 86%
Pressure (altimeter): 29.95 in. Hg (1014 hPa)
ob: KSLG 150756Z AUTO 18007KT 10SM OVC013 18/16 A2995 RMK AO2 SLP132 T01780156
cycle: 8

Station Type Date Time Source
KSLG TAF UTC NOAA

Error!

Example: see airport list